sensor_id;sensor_type;location;lat;lon;timestamp;P1;P2;P0
47808;PMS5003;33573;38.790;-77.084;2023-09-19T00:03:33;17;16;
47808;PMS5003;33573;38.790;-77.084;2023-09-19T00:05:59;15;15;
47808;PMS5003;33573;38.790;-77.084;2023-09-19T00:10:49;21;17;
47808;PMS5003;33573;38.790;-77.084;2023-09-19T00:13:14;16;15;
47808;PMS5003;33573;38.790;-77.084;2023-09-19T00:18:05;15;14;
47808;PMS5003;33573;38.790;-77.084;2023-09-19T00:20:30;15;15;
47808;PMS5003;33573;38.790;-77.084;2023-09-19T00:25:21;16;14;
47808;PMS5003;33573;38.790;-77.084;2023-09-19T00:27:41;17;16;
47808;PMS5003;33573;38.790;-77.084;2023-09-19T00:32:37;17;16;
47808;PMS5003;33573;38.790;-77.084;2023-09-19T00:35:02;18;16;
47808;PMS5003;33573;38.790;-77.084;2023-09-19T00:39:48;17;14;
47808;PMS5003;33573;38.790;-77.084;2023-09-19T00:42:19;13;13;
47808;PMS5003;33573;38.790;-77.084;2023-09-19T00:47:09;15;13;
47808;PMS5003;33573;38.790;-77.084;2023-09-19T00:49:34;15;14;
47808;PMS5003;33573;38.790;-77.084;2023-09-19T00:51:54;13;13;
47808;PMS5003;33573;38.790;-77.084;2023-09-19T00:54:20;14;13;
47808;PMS5003;33573;38.790;-77.084;2023-09-19T00:56:45;14;13;
47808;PMS5003;33573;38.790;-77.084;2023-09-19T01:01:36;14;14;
47808;PMS5003;33573;38.790;-77.084;2023-09-19T01:04:01;12;12;
47808;PMS5003;33573;38.790;-77.084;2023-09-19T01:06:27;13;11;
47808;PMS5003;33573;38.790;-77.084;2023-09-19T01:08:52;13;13;
47808;PMS5003;33573;38.790;-77.084;2023-09-19T01:11:25;15;15;
47808;PMS5003;33573;38.790;-77.084;2023-09-19T01:16:15;14;14;
47808;PMS5003;33573;38.790;-77.084;2023-09-19T01:18:40;16;13;
47808;PMS5003;33573;38.790;-77.084;2023-09-19T01:23:26;17;16;
47808;PMS5003;33573;38.790;-77.084;2023-09-19T01:25:56;15;14;
47808;PMS5003;33573;38.790;-77.084;2023-09-19T01:28:19;19;16;
47808;PMS5003;33573;38.790;-77.084;2023-09-19T01:30:45;16;14;
47808;PMS5003;33573;38.790;-77.084;2023-09-19T01:33:11;15;12;
47808;PMS5003;33573;38.790;-77.084;2023-09-19T01:35:31;13;13;
47808;PMS5003;33573;38.790;-77.084;2023-09-19T01:37:56;18;15;
47808;PMS5003;33573;38.790;-77.084;2023-09-19T01:42:53;15;15;
47808;PMS5003;33573;38.790;-77.084;2023-09-19T01:45:19;16;15;
47808;PMS5003;33573;38.790;-77.084;2023-09-19T01:50:05;15;14;
47808;PMS5003;33573;38.790;-77.084;2023-09-19T01:52:35;17;15;
47808;PMS5003;33573;38.790;-77.084;2023-09-19T01:57:22;20;15;
47808;PMS5003;33573;38.790;-77.084;2023-09-19T01:59:50;14;13;
47808;PMS5003;33573;38.790;-77.084;2023-09-19T02:02:09;19;14;
47808;PMS5003;33573;38.790;-77.084;2023-09-19T02:04:40;16;14;
47808;PMS5003;33573;38.790;-77.084;2023-09-19T02:07:05;14;13;
47808;PMS5003;33573;38.790;-77.084;2023-09-19T02:11:56;18;17;
47808;PMS5003;33573;38.790;-77.084;2023-09-19T02:14:22;17;14;
47808;PMS5003;33573;38.790;-77.084;2023-09-19T02:16:42;15;13;
47808;PMS5003;33573;38.790;-77.084;2023-09-19T02:19:13;16;15;
47808;PMS5003;33573;38.790;-77.084;2023-09-19T02:21:33;16;15;
47808;PMS5003;33573;38.790;-77.084;2023-09-19T02:24:04;13;12;
47808;PMS5003;33573;38.790;-77.084;2023-09-19T02:26:29;16;14;
47808;PMS5003;33573;38.790;-77.084;2023-09-19T02:28:49;20;12;
47808;PMS5003;33573;38.790;-77.084;2023-09-19T02:31:20;16;13;
47808;PMS5003;33573;38.790;-77.084;2023-09-19T02:33:48;16;15;
47808;PMS5003;33573;38.790;-77.084;2023-09-19T02:36:11;14;13;
47808;PMS5003;33573;38.790;-77.084;2023-09-19T02:38:36;18;15;
47808;PMS5003;33573;38.790;-77.084;2023-09-19T02:40:56;17;15;
47808;PMS5003;33573;38.790;-77.084;2023-09-19T02:43:22;19;16;
47808;PMS5003;33573;38.790;-77.084;2023-09-19T02:45:48;14;13;
47808;PMS5003;33573;38.790;-77.084;2023-09-19T02:48:13;15;15;
47808;PMS5003;33573;38.790;-77.084;2023-09-19T02:50:43;18;15;
47808;PMS5003;33573;38.790;-77.084;2023-09-19T02:53:03;14;14;
47808;PMS5003;33573;38.790;-77.084;2023-09-19T02:55:29;17;15;
47808;PMS5003;33573;38.790;-77.084;2023-09-19T02:57:54;17;15;
47808;PMS5003;33573;38.790;-77.084;2023-09-19T03:00:20;15;14;
47808;PMS5003;33573;38.790;-77.084;2023-09-19T03:02:45;16;14;
47808;PMS5003;33573;38.790;-77.084;2023-09-19T03:05:10;18;18;
47808;PMS5003;33573;38.790;-77.084;2023-09-19T03:07:36;14;14;
47808;PMS5003;33573;38.790;-77.084;2023-09-19T03:10:01;15;14;
47808;PMS5003;33573;38.790;-77.084;2023-09-19T03:12:26;18;17;
47808;PMS5003;33573;38.790;-77.084;2023-09-19T03:14:52;17;16;
47808;PMS5003;33573;38.790;-77.084;2023-09-19T03:17:17;14;14;
47808;PMS5003;33573;38.790;-77.084;2023-09-19T03:19:42;16;15;
47808;PMS5003;33573;38.790;-77.084;2023-09-19T03:22:08;17;17;
47808;PMS5003;33573;38.790;-77.084;2023-09-19T03:26:59;14;14;
47808;PMS5003;33573;38.790;-77.084;2023-09-19T03:29:24;18;16;
47808;PMS5003;33573;38.790;-77.084;2023-09-19T03:31:50;20;16;
47808;PMS5003;33573;38.790;-77.084;2023-09-19T03:34:15;19;17;
47808;PMS5003;33573;38.790;-77.084;2023-09-19T03:36:41;16;15;
47808;PMS5003;33573;38.790;-77.084;2023-09-19T03:39:11;15;14;
47808;PMS5003;33573;38.790;-77.084;2023-09-19T03:41:37;18;17;
47808;PMS5003;33573;38.790;-77.084;2023-09-19T03:44:02;18;14;
47808;PMS5003;33573;38.790;-77.084;2023-09-19T03:46:22;12;12;
47808;PMS5003;33573;38.790;-77.084;2023-09-19T03:48:48;20;16;
47808;PMS5003;33573;38.790;-77.084;2023-09-19T03:51:13;16;16;
47808;PMS5003;33573;38.790;-77.084;2023-09-19T03:53:38;22;17;
47808;PMS5003;33573;38.790;-77.084;2023-09-19T03:56:04;18;18;
47808;PMS5003;33573;38.790;-77.084;2023-09-19T03:58:30;16;14;
47808;PMS5003;33573;38.790;-77.084;2023-09-19T04:00:55;17;15;
47808;PMS5003;33573;38.790;-77.084;2023-09-19T04:03:20;18;16;
47808;PMS5003;33573;38.790;-77.084;2023-09-19T04:05:45;16;16;
47808;PMS5003;33573;38.790;-77.084;2023-09-19T04:08:16;15;14;
47808;PMS5003;33573;38.790;-77.084;2023-09-19T04:10:42;18;16;
47808;PMS5003;33573;38.790;-77.084;2023-09-19T04:13:06;20;18;
47808;PMS5003;33573;38.790;-77.084;2023-09-19T04:17:57;14;14;
47808;PMS5003;33573;38.790;-77.084;2023-09-19T04:20:17;19;16;
47808;PMS5003;33573;38.790;-77.084;2023-09-19T04:22:43;14;13;
47808;PMS5003;33573;38.790;-77.084;2023-09-19T04:25:08;16;14;
47808;PMS5003;33573;38.790;-77.084;2023-09-19T04:27:39;15;15;
47808;PMS5003;33573;38.790;-77.084;2023-09-19T04:29:59;20;16;
47808;PMS5003;33573;38.790;-77.084;2023-09-19T04:32:29;14;13;
47808;PMS5003;33573;38.790;-77.084;2023-09-19T04:34:49;19;14;
47808;PMS5003;33573;38.790;-77.084;2023-09-19T04:37:19;20;19;
47808;PMS5003;33573;38.790;-77.084;2023-09-19T04:39:45;14;14;
47808;PMS5003;33573;38.790;-77.084;2023-09-19T04:44:36;16;14;
47808;PMS5003;33573;38.790;-77.084;2023-09-19T04:47:01;12;11;
47808;PMS5003;33573;38.790;-77.084;2023-09-19T04:51:52;15;13;
47808;PMS5003;33573;38.790;-77.084;2023-09-19T04:54:17;18;15;
47808;PMS5003;33573;38.790;-77.084;2023-09-19T04:56:37;19;15;
47808;PMS5003;33573;38.790;-77.084;2023-09-19T04:59:03;18;16;
47808;PMS5003;33573;38.790;-77.084;2023-09-19T05:01:33;20;16;
47808;PMS5003;33573;38.790;-77.084;2023-09-19T05:06:24;16;16;
47808;PMS5003;33573;38.790;-77.084;2023-09-19T05:08:50;19;17;
47808;PMS5003;33573;38.790;-77.084;2023-09-19T05:13:40;16;16;
47808;PMS5003;33573;38.790;-77.084;2023-09-19T05:16:01;17;15;
47808;PMS5003;33573;38.790;-77.084;2023-09-19T05:18:26;16;13;
47808;PMS5003;33573;38.790;-77.084;2023-09-19T05:20:51;16;16;
47808;PMS5003;33573;38.790;-77.084;2023-09-19T05:23:17;13;13;
47808;PMS5003;33573;38.790;-77.084;2023-09-19T05:25:42;18;17;
47808;PMS5003;33573;38.790;-77.084;2023-09-19T05:28:09;14;14;
47808;PMS5003;33573;38.790;-77.084;2023-09-19T05:30:33;15;14;
47808;PMS5003;33573;38.790;-77.084;2023-09-19T05:32:58;14;13;
47808;PMS5003;33573;38.790;-77.084;2023-09-19T05:35:24;15;13;
47808;PMS5003;33573;38.790;-77.084;2023-09-19T05:37:50;16;16;
47808;PMS5003;33573;38.790;-77.084;2023-09-19T05:40:15;16;15;
47808;PMS5003;33573;38.790;-77.084;2023-09-19T05:42:40;17;16;
47808;PMS5003;33573;38.790;-77.084;2023-09-19T05:45:06;15;15;
47808;PMS5003;33573;38.790;-77.084;2023-09-19T05:47:31;17;14;
47808;PMS5003;33573;38.790;-77.084;2023-09-19T05:49:56;21;19;
47808;PMS5003;33573;38.790;-77.084;2023-09-19T05:52:22;17;17;
47808;PMS5003;33573;38.790;-77.084;2023-09-19T05:54:47;20;17;
47808;PMS5003;33573;38.790;-77.084;2023-09-19T05:57:13;18;15;
47808;PMS5003;33573;38.790;-77.084;2023-09-19T05:59:38;16;14;
47808;PMS5003;33573;38.790;-77.084;2023-09-19T06:02:03;17;15;
47808;PMS5003;33573;38.790;-77.084;2023-09-19T06:04:29;19;17;
47808;PMS5003;33573;38.790;-77.084;2023-09-19T06:06:54;15;15;
47808;PMS5003;33573;38.790;-77.084;2023-09-19T06:09:19;16;14;
47808;PMS5003;33573;38.790;-77.084;2023-09-19T06:11:45;18;16;
47808;PMS5003;33573;38.790;-77.084;2023-09-19T06:14:10;16;16;
47808;PMS5003;33573;38.790;-77.084;2023-09-19T06:16:35;23;18;
47808;PMS5003;33573;38.790;-77.084;2023-09-19T06:19:01;20;17;
47808;PMS5003;33573;38.790;-77.084;2023-09-19T06:21:26;17;17;
47808;PMS5003;33573;38.790;-77.084;2023-09-19T06:23:51;17;16;
47808;PMS5003;33573;38.790;-77.084;2023-09-19T06:26:17;18;16;
47808;PMS5003;33573;38.790;-77.084;2023-09-19T06:28:42;15;15;
47808;PMS5003;33573;38.790;-77.084;2023-09-19T06:31:07;16;15;
47808;PMS5003;33573;38.790;-77.084;2023-09-19T06:33:33;18;16;
47808;PMS5003;33573;38.790;-77.084;2023-09-19T06:35:59;16;15;
47808;PMS5003;33573;38.790;-77.084;2023-09-19T06:38:24;14;14;
47808;PMS5003;33573;38.790;-77.084;2023-09-19T06:40:49;13;13;
47808;PMS5003;33573;38.790;-77.084;2023-09-19T06:43:15;22;16;
47808;PMS5003;33573;38.790;-77.084;2023-09-19T06:45:41;15;15;
47808;PMS5003;33573;38.790;-77.084;2023-09-19T06:48:06;15;15;
47808;PMS5003;33573;38.790;-77.084;2023-09-19T06:50:32;16;14;
47808;PMS5003;33573;38.790;-77.084;2023-09-19T06:52:57;15;14;
47808;PMS5003;33573;38.790;-77.084;2023-09-19T06:55:23;17;15;
47808;PMS5003;33573;38.790;-77.084;2023-09-19T06:57:48;16;13;
47808;PMS5003;33573;38.790;-77.084;2023-09-19T07:00:14;18;16;
47808;PMS5003;33573;38.790;-77.084;2023-09-19T07:02:39;16;16;
47808;PMS5003;33573;38.790;-77.084;2023-09-19T07:05:04;17;17;
47808;PMS5003;33573;38.790;-77.084;2023-09-19T07:07:29;19;18;
47808;PMS5003;33573;38.790;-77.084;2023-09-19T07:09:55;14;14;
47808;PMS5003;33573;38.790;-77.084;2023-09-19T07:12:20;13;12;
47808;PMS5003;33573;38.790;-77.084;2023-09-19T07:14:46;19;16;
47808;PMS5003;33573;38.790;-77.084;2023-09-19T07:17:11;15;15;
47808;PMS5003;33573;38.790;-77.084;2023-09-19T07:19:36;15;14;
47808;PMS5003;33573;38.790;-77.084;2023-09-19T07:22:06;14;13;
47808;PMS5003;33573;38.790;-77.084;2023-09-19T07:24:26;17;16;
47808;PMS5003;33573;38.790;-77.084;2023-09-19T07:26:57;14;13;
47808;PMS5003;33573;38.790;-77.084;2023-09-19T07:29:22;15;13;
47808;PMS5003;33573;38.790;-77.084;2023-09-19T07:31:42;13;13;
47808;PMS5003;33573;38.790;-77.084;2023-09-19T07:34:08;19;14;
47808;PMS5003;33573;38.790;-77.084;2023-09-19T07:38:59;18;15;
47808;PMS5003;33573;38.790;-77.084;2023-09-19T07:41:24;14;14;
47808;PMS5003;33573;38.790;-77.084;2023-09-19T07:43:49;15;14;
47808;PMS5003;33573;38.790;-77.084;2023-09-19T07:46:15;15;15;
47808;PMS5003;33573;38.790;-77.084;2023-09-19T07:48:40;14;13;
47808;PMS5003;33573;38.790;-77.084;2023-09-19T07:51:05;14;14;
47808;PMS5003;33573;38.790;-77.084;2023-09-19T07:53:31;15;12;
47808;PMS5003;33573;38.790;-77.084;2023-09-19T07:58:21;15;15;
47808;PMS5003;33573;38.790;-77.084;2023-09-19T08:00:47;18;15;
47808;PMS5003;33573;38.790;-77.084;2023-09-19T08:03:12;16;16;
47808;PMS5003;33573;38.790;-77.084;2023-09-19T08:05:37;17;16;
47808;PMS5003;33573;38.790;-77.084;2023-09-19T08:08:03;15;14;
47808;PMS5003;33573;38.790;-77.084;2023-09-19T08:10:28;17;15;
47808;PMS5003;33573;38.790;-77.084;2023-09-19T08:12:53;13;13;
47808;PMS5003;33573;38.790;-77.084;2023-09-19T08:15:19;16;14;
47808;PMS5003;33573;38.790;-77.084;2023-09-19T08:17:44;14;13;
47808;PMS5003;33573;38.790;-77.084;2023-09-19T08:20:09;12;12;
47808;PMS5003;33573;38.790;-77.084;2023-09-19T08:22:35;18;17;
47808;PMS5003;33573;38.790;-77.084;2023-09-19T08:25:01;20;18;
47808;PMS5003;33573;38.790;-77.084;2023-09-19T08:27:26;14;14;
47808;PMS5003;33573;38.790;-77.084;2023-09-19T08:29:52;19;14;
47808;PMS5003;33573;38.790;-77.084;2023-09-19T08:32:18;14;14;
47808;PMS5003;33573;38.790;-77.084;2023-09-19T08:34:43;16;16;
47808;PMS5003;33573;38.790;-77.084;2023-09-19T08:37:09;13;13;
47808;PMS5003;33573;38.790;-77.084;2023-09-19T08:39:34;17;15;
47808;PMS5003;33573;38.790;-77.084;2023-09-19T08:42:00;17;15;
47808;PMS5003;33573;38.790;-77.084;2023-09-19T08:44:25;16;16;
47808;PMS5003;33573;38.790;-77.084;2023-09-19T08:46:50;17;15;
47808;PMS5003;33573;38.790;-77.084;2023-09-19T08:49:17;17;15;
47808;PMS5003;33573;38.790;-77.084;2023-09-19T08:51:42;14;14;
47808;PMS5003;33573;38.790;-77.084;2023-09-19T08:54:06;15;12;
47808;PMS5003;33573;38.790;-77.084;2023-09-19T08:59:03;16;16;
47808;PMS5003;33573;38.790;-77.084;2023-09-19T09:01:22;14;14;
47808;PMS5003;33573;38.790;-77.084;2023-09-19T09:06:14;13;13;
47808;PMS5003;33573;38.790;-77.084;2023-09-19T09:08:43;15;14;
47808;PMS5003;33573;38.790;-77.084;2023-09-19T09:13:34;15;15;
47808;PMS5003;33573;38.790;-77.084;2023-09-19T09:15:59;18;16;
47808;PMS5003;33573;38.790;-77.084;2023-09-19T09:20:44;18;16;
47808;PMS5003;33573;38.790;-77.084;2023-09-19T09:23:15;16;15;
47808;PMS5003;33573;38.790;-77.084;2023-09-19T09:28:06;15;13;
47808;PMS5003;33573;38.790;-77.084;2023-09-19T09:30:34;15;13;
47808;PMS5003;33573;38.790;-77.084;2023-09-19T09:35:21;16;14;
47808;PMS5003;33573;38.790;-77.084;2023-09-19T09:37:47;20;17;
47808;PMS5003;33573;38.790;-77.084;2023-09-19T09:42:38;17;14;
47808;PMS5003;33573;38.790;-77.084;2023-09-19T09:49:53;17;15;
47808;PMS5003;33573;38.790;-77.084;2023-09-19T09:52:19;20;16;
47808;PMS5003;33573;38.790;-77.084;2023-09-19T09:54:39;14;14;
47808;PMS5003;33573;38.790;-77.084;2023-09-19T09:57:10;15;15;
47808;PMS5003;33573;38.790;-77.084;2023-09-19T10:01:55;17;17;
47808;PMS5003;33573;38.790;-77.084;2023-09-19T10:04:28;14;13;
47808;PMS5003;33573;38.790;-77.084;2023-09-19T10:06:50;15;14;
47808;PMS5003;33573;38.790;-77.084;2023-09-19T10:11:42;16;14;
47808;PMS5003;33573;38.790;-77.084;2023-09-19T10:14:06;15;15;
47808;PMS5003;33573;38.790;-77.084;2023-09-19T10:18:57;15;15;
47808;PMS5003;33573;38.790;-77.084;2023-09-19T10:21:23;16;15;
47808;PMS5003;33573;38.790;-77.084;2023-09-19T10:23:49;15;14;
47808;PMS5003;33573;38.790;-77.084;2023-09-19T10:26:15;15;15;
47808;PMS5003;33573;38.790;-77.084;2023-09-19T10:28:40;16;13;
47808;PMS5003;33573;38.790;-77.084;2023-09-19T10:33:33;15;13;
47808;PMS5003;33573;38.790;-77.084;2023-09-19T10:35:58;16;16;
47808;PMS5003;33573;38.790;-77.084;2023-09-19T10:38:17;15;13;
47808;PMS5003;33573;38.790;-77.084;2023-09-19T10:40:49;14;13;
47808;PMS5003;33573;38.790;-77.084;2023-09-19T10:43:13;16;13;
47808;PMS5003;33573;38.790;-77.084;2023-09-19T10:45:37;14;14;
47808;PMS5003;33573;38.790;-77.084;2023-09-19T10:48:03;18;17;
47808;PMS5003;33573;38.790;-77.084;2023-09-19T10:50:23;14;14;
47808;PMS5003;33573;38.790;-77.084;2023-09-19T10:52:53;14;14;
47808;PMS5003;33573;38.790;-77.084;2023-09-19T10:55:19;17;15;
47808;PMS5003;33573;38.790;-77.084;2023-09-19T10:57:39;17;14;
47808;PMS5003;33573;38.790;-77.084;2023-09-19T11:00:05;15;13;
47808;PMS5003;33573;38.790;-77.084;2023-09-19T11:02:35;12;12;
47808;PMS5003;33573;38.790;-77.084;2023-09-19T11:09:53;20;18;
47808;PMS5003;33573;38.790;-77.084;2023-09-19T11:12:12;16;15;
47808;PMS5003;33573;38.790;-77.084;2023-09-19T11:14:38;14;13;
47808;PMS5003;33573;38.790;-77.084;2023-09-19T11:24:27;15;14;
47808;PMS5003;33573;38.790;-77.084;2023-09-19T11:26:50;16;15;
47808;PMS5003;33573;38.790;-77.084;2023-09-19T11:31:42;20;16;
47808;PMS5003;33573;38.790;-77.084;2023-09-19T11:38:57;16;13;
47808;PMS5003;33573;38.790;-77.084;2023-09-19T11:46:13;12;12;
47808;PMS5003;33573;38.790;-77.084;2023-09-19T11:48:39;15;14;
47808;PMS5003;33573;38.790;-77.084;2023-09-19T11:50:59;15;14;
47808;PMS5003;33573;38.790;-77.084;2023-09-19T11:53:31;12;11;
47808;PMS5003;33573;38.790;-77.084;2023-09-19T11:55:54;11;11;
47808;PMS5003;33573;38.790;-77.084;2023-09-19T11:58:15;15;15;
47808;PMS5003;33573;38.790;-77.084;2023-09-19T12:00:40;16;14;
47808;PMS5003;33573;38.790;-77.084;2023-09-19T12:03:11;12;12;
47808;PMS5003;33573;38.790;-77.084;2023-09-19T12:07:56;13;13;
47808;PMS5003;33573;38.790;-77.084;2023-09-19T12:10:22;15;15;
47808;PMS5003;33573;38.790;-77.084;2023-09-19T12:17:38;12;12;
47808;PMS5003;33573;38.790;-77.084;2023-09-19T12:20:03;15;14;
47808;PMS5003;33573;38.790;-77.084;2023-09-19T12:24:54;13;11;
47808;PMS5003;33573;38.790;-77.084;2023-09-19T12:27:19;14;11;
47808;PMS5003;33573;38.790;-77.084;2023-09-19T12:29:45;10;10;
47808;PMS5003;33573;38.790;-77.084;2023-09-19T12:32:15;17;12;
47808;PMS5003;33573;38.790;-77.084;2023-09-19T12:34:40;16;14;
47808;PMS5003;33573;38.790;-77.084;2023-09-19T12:37:05;14;14;
47808;PMS5003;33573;38.790;-77.084;2023-09-19T12:39:27;10;10;
47808;PMS5003;33573;38.790;-77.084;2023-09-19T12:41:52;14;12;
47808;PMS5003;33573;38.790;-77.084;2023-09-19T12:44:17;15;15;
47808;PMS5003;33573;38.790;-77.084;2023-09-19T12:46:48;15;13;
47808;PMS5003;33573;38.790;-77.084;2023-09-19T12:49:17;12;12;
47808;PMS5003;33573;38.790;-77.084;2023-09-19T12:51:35;13;11;
47808;PMS5003;33573;38.790;-77.084;2023-09-19T12:53:59;11;11;
47808;PMS5003;33573;38.790;-77.084;2023-09-19T12:56:24;13;11;
47808;PMS5003;33573;38.790;-77.084;2023-09-19T12:58:50;10;10;
47808;PMS5003;33573;38.790;-77.084;2023-09-19T13:01:15;13;13;
47808;PMS5003;33573;38.790;-77.084;2023-09-19T13:06:11;15;11;
47808;PMS5003;33573;38.790;-77.084;2023-09-19T13:08:37;10;8;
47808;PMS5003;33573;38.790;-77.084;2023-09-19T13:11:01;12;12;
47808;PMS5003;33573;38.790;-77.084;2023-09-19T13:13:33;13;11;
47808;PMS5003;33573;38.790;-77.084;2023-09-19T13:15:53;10;10;
47808;PMS5003;33573;38.790;-77.084;2023-09-19T13:18:13;11;11;
47808;PMS5003;33573;38.790;-77.084;2023-09-19T13:20:43;13;11;
47808;PMS5003;33573;38.790;-77.084;2023-09-19T13:23:03;13;10;
47808;PMS5003;33573;38.790;-77.084;2023-09-19T13:25:29;10;8;
47808;PMS5003;33573;38.790;-77.084;2023-09-19T13:27:59;12;12;
47808;PMS5003;33573;38.790;-77.084;2023-09-19T13:30:19;12;10;
47808;PMS5003;33573;38.790;-77.084;2023-09-19T13:32:50;11;9;
47808;PMS5003;33573;38.790;-77.084;2023-09-19T13:35:10;10;10;
47808;PMS5003;33573;38.790;-77.084;2023-09-19T13:37:41;9;8;
47808;PMS5003;33573;38.790;-77.084;2023-09-19T13:40:01;9;9;
47808;PMS5003;33573;38.790;-77.084;2023-09-19T13:42:26;10;10;
47808;PMS5003;33573;38.790;-77.084;2023-09-19T13:44:57;8;8;
47808;PMS5003;33573;38.790;-77.084;2023-09-19T13:47:17;10;10;
47808;PMS5003;33573;38.790;-77.084;2023-09-19T13:49:48;13;11;
47808;PMS5003;33573;38.790;-77.084;2023-09-19T13:52:13;9;9;
47808;PMS5003;33573;38.790;-77.084;2023-09-19T13:57:04;12;10;
47808;PMS5003;33573;38.790;-77.084;2023-09-19T13:59:29;12;11;
47808;PMS5003;33573;38.790;-77.084;2023-09-19T14:04:20;11;9;
47808;PMS5003;33573;38.790;-77.084;2023-09-19T14:06:41;11;10;
47808;PMS5003;33573;38.790;-77.084;2023-09-19T14:11:36;12;9;
47808;PMS5003;33573;38.790;-77.084;2023-09-19T14:14:01;9;9;
47808;PMS5003;33573;38.790;-77.084;2023-09-19T14:16:22;10;10;
47808;PMS5003;33573;38.790;-77.084;2023-09-19T14:18:52;8;8;
47808;PMS5003;33573;38.790;-77.084;2023-09-19T14:21:18;9;9;
47808;PMS5003;33573;38.790;-77.084;2023-09-19T14:26:08;9;9;
47808;PMS5003;33573;38.790;-77.084;2023-09-19T14:28:33;11;10;
47808;PMS5003;33573;38.790;-77.084;2023-09-19T14:30:54;8;8;
47808;PMS5003;33573;38.790;-77.084;2023-09-19T14:33:24;11;9;
47808;PMS5003;33573;38.790;-77.084;2023-09-19T14:35:49;9;9;
47808;PMS5003;33573;38.790;-77.084;2023-09-19T14:40:35;10;9;
47808;PMS5003;33573;38.790;-77.084;2023-09-19T14:43:06;10;10;
47808;PMS5003;33573;38.790;-77.084;2023-09-19T14:47:51;7;7;
47808;PMS5003;33573;38.790;-77.084;2023-09-19T14:50:17;9;8;
47808;PMS5003;33573;38.790;-77.084;2023-09-19T14:52:42;9;9;
47808;PMS5003;33573;38.790;-77.084;2023-09-19T14:55:08;9;9;
47808;PMS5003;33573;38.790;-77.084;2023-09-19T14:57:33;9;9;
47808;PMS5003;33573;38.790;-77.084;2023-09-19T14:59:58;9;9;
47808;PMS5003;33573;38.790;-77.084;2023-09-19T15:02:24;8;8;
47808;PMS5003;33573;38.790;-77.084;2023-09-19T15:04:51;9;9;
47808;PMS5003;33573;38.790;-77.084;2023-09-19T15:07:15;9;7;
47808;PMS5003;33573;38.790;-77.084;2023-09-19T15:09:40;9;7;
47808;PMS5003;33573;38.790;-77.084;2023-09-19T15:12:06;10;10;
47808;PMS5003;33573;38.790;-77.084;2023-09-19T15:14:31;12;11;
47808;PMS5003;33573;38.790;-77.084;2023-09-19T15:16:56;10;6;
47808;PMS5003;33573;38.790;-77.084;2023-09-19T15:19:22;9;9;
47808;PMS5003;33573;38.790;-77.084;2023-09-19T15:21:47;10;10;
47808;PMS5003;33573;38.790;-77.084;2023-09-19T15:24:13;12;11;
47808;PMS5003;33573;38.790;-77.084;2023-09-19T15:26:38;11;9;
47808;PMS5003;33573;38.790;-77.084;2023-09-19T15:29:03;11;10;
47808;PMS5003;33573;38.790;-77.084;2023-09-19T15:31:28;9;9;
47808;PMS5003;33573;38.790;-77.084;2023-09-19T15:33:54;8;8;
47808;PMS5003;33573;38.790;-77.084;2023-09-19T15:36:19;12;10;
47808;PMS5003;33573;38.790;-77.084;2023-09-19T15:41:12;9;8;
47808;PMS5003;33573;38.790;-77.084;2023-09-19T15:43:36;9;8;
47808;PMS5003;33573;38.790;-77.084;2023-09-19T15:46:01;10;9;
47808;PMS5003;33573;38.790;-77.084;2023-09-19T15:48:26;9;8;
47808;PMS5003;33573;38.790;-77.084;2023-09-19T15:50:52;8;8;
47808;PMS5003;33573;38.790;-77.084;2023-09-19T15:53:17;13;10;
47808;PMS5003;33573;38.790;-77.084;2023-09-19T15:55:43;10;8;
47808;PMS5003;33573;38.790;-77.084;2023-09-19T16:00:40;9;9;
47808;PMS5003;33573;38.790;-77.084;2023-09-19T16:02:59;9;9;
47808;PMS5003;33573;38.790;-77.084;2023-09-19T16:07:55;10;9;
47808;PMS5003;33573;38.790;-77.084;2023-09-19T16:10:15;9;8;
47808;PMS5003;33573;38.790;-77.084;2023-09-19T16:15:06;10;8;
47808;PMS5003;33573;38.790;-77.084;2023-09-19T16:17:37;7;7;
47808;PMS5003;33573;38.790;-77.084;2023-09-19T16:22:22;8;8;
47808;PMS5003;33573;38.790;-77.084;2023-09-19T16:24:48;9;7;
47808;PMS5003;33573;38.790;-77.084;2023-09-19T16:27:13;11;11;
47808;PMS5003;33573;38.790;-77.084;2023-09-19T16:29:38;10;10;
47808;PMS5003;33573;38.790;-77.084;2023-09-19T16:32:04;8;8;
47808;PMS5003;33573;38.790;-77.084;2023-09-19T16:34:30;9;9;
47808;PMS5003;33573;38.790;-77.084;2023-09-19T16:36:55;8;8;
47808;PMS5003;33573;38.790;-77.084;2023-09-19T16:39:20;8;8;
47808;PMS5003;33573;38.790;-77.084;2023-09-19T16:41:45;11;10;
47808;PMS5003;33573;38.790;-77.084;2023-09-19T16:44:11;9;7;
47808;PMS5003;33573;38.790;-77.084;2023-09-19T16:46:36;9;8;
47808;PMS5003;33573;38.790;-77.084;2023-09-19T16:49:01;9;7;
47808;PMS5003;33573;38.790;-77.084;2023-09-19T16:51:27;11;10;
47808;PMS5003;33573;38.790;-77.084;2023-09-19T16:53:52;10;8;
47808;PMS5003;33573;38.790;-77.084;2023-09-19T16:56:18;8;7;
47808;PMS5003;33573;38.790;-77.084;2023-09-19T16:58:43;9;9;
47808;PMS5003;33573;38.790;-77.084;2023-09-19T17:01:09;10;9;
47808;PMS5003;33573;38.790;-77.084;2023-09-19T17:03:34;6;6;
47808;PMS5003;33573;38.790;-77.084;2023-09-19T17:05:59;8;8;
47808;PMS5003;33573;38.790;-77.084;2023-09-19T17:08:25;9;8;
47808;PMS5003;33573;38.790;-77.084;2023-09-19T17:11:01;10;9;
47808;PMS5003;33573;38.790;-77.084;2023-09-19T17:13:20;11;11;
47808;PMS5003;33573;38.790;-77.084;2023-09-19T17:15:41;7;7;
47808;PMS5003;33573;38.790;-77.084;2023-09-19T17:20:40;8;8;
47808;PMS5003;33573;38.790;-77.084;2023-09-19T17:22:57;11;9;
47808;PMS5003;33573;38.790;-77.084;2023-09-19T17:25:23;10;9;
47808;PMS5003;33573;38.790;-77.084;2023-09-19T17:27:53;9;9;
47808;PMS5003;33573;38.790;-77.084;2023-09-19T17:30:18;10;10;
47808;PMS5003;33573;38.790;-77.084;2023-09-19T17:32:44;8;8;
47808;PMS5003;33573;38.790;-77.084;2023-09-19T17:35:04;10;8;
47808;PMS5003;33573;38.790;-77.084;2023-09-19T17:37:35;9;8;
47808;PMS5003;33573;38.790;-77.084;2023-09-19T17:39:55;8;8;
47808;PMS5003;33573;38.790;-77.084;2023-09-19T17:42:20;9;9;
47808;PMS5003;33573;38.790;-77.084;2023-09-19T17:44:51;6;6;
47808;PMS5003;33573;38.790;-77.084;2023-09-19T17:47:16;10;8;
47808;PMS5003;33573;38.790;-77.084;2023-09-19T17:49:41;8;8;
47808;PMS5003;33573;38.790;-77.084;2023-09-19T17:52:07;8;8;
47808;PMS5003;33573;38.790;-77.084;2023-09-19T17:54:27;10;10;
47808;PMS5003;33573;38.790;-77.084;2023-09-19T17:59:18;10;10;
47808;PMS5003;33573;38.790;-77.084;2023-09-19T18:01:43;11;10;
47808;PMS5003;33573;38.790;-77.084;2023-09-19T18:04:14;10;9;
47808;PMS5003;33573;38.790;-77.084;2023-09-19T18:06:35;8;8;
47808;PMS5003;33573;38.790;-77.084;2023-09-19T18:09:05;9;7;
47808;PMS5003;33573;38.790;-77.084;2023-09-19T18:13:51;11;10;